createdAt,value
2022-10-14T00:01:18.161Z,14.44
2022-10-14T00:03:46.812Z,14.44
2022-10-14T00:06:18.050Z,14.47
2022-10-14T00:08:47.621Z,14.47
2022-10-14T00:11:17.782Z,14.44
2022-10-14T00:13:46.334Z,14.46
2022-10-14T00:16:21.132Z,14.46
2022-10-14T00:18:49.544Z,14.42
2022-10-14T00:21:17.740Z,14.40
2022-10-14T00:23:48.031Z,14.35
2022-10-14T00:26:18.980Z,14.28
2022-10-14T00:28:47.399Z,14.31
2022-10-14T00:31:15.865Z,14.31
2022-10-14T00:33:45.618Z,14.31
2022-10-14T00:36:16.089Z,14.33
2022-10-14T00:38:45.335Z,14.38
2022-10-14T00:41:17.691Z,14.36
2022-10-14T00:43:58.045Z,14.32
2022-10-14T00:46:27.454Z,14.27
2022-10-14T00:49:02.552Z,14.29
2022-10-14T00:51:30.647Z,14.32
2022-10-14T00:53:59.098Z,14.29
2022-10-14T00:56:30.369Z,14.31
2022-10-14T00:58:59.340Z,14.34
2022-10-14T01:01:27.539Z,14.35
2022-10-14T01:03:55.749Z,14.28
2022-10-14T01:06:36.282Z,14.23
2022-10-14T01:09:10.575Z,14.20
2022-10-14T01:11:56.668Z,14.24
2022-10-14T01:14:48.133Z,14.27
2022-10-14T01:17:24.703Z,14.24
2022-10-14T01:20:14.973Z,14.29
2022-10-14T01:22:56.712Z,14.29
2022-10-14T01:25:32.958Z,14.27
2022-10-14T01:28:20.230Z,14.28
2022-10-14T01:30:52.860Z,14.34
2022-10-14T01:33:25.600Z,14.38
2022-10-14T01:36:03.593Z,14.26
2022-10-14T01:38:37.318Z,14.31
2022-10-14T01:41:12.920Z,14.29
2022-10-14T01:43:42.144Z,14.43
2022-10-14T01:46:13.402Z,14.39
2022-10-14T01:48:46.594Z,14.41
2022-10-14T01:51:21.425Z,14.41
2022-10-14T01:53:58.502Z,14.39
2022-10-14T01:56:31.273Z,14.36
2022-10-14T01:59:02.119Z,14.34
2022-10-14T02:01:35.044Z,14.44
2022-10-14T02:04:02.973Z,14.43
2022-10-14T02:06:35.049Z,14.45
2022-10-14T02:09:13.127Z,14.47
2022-10-14T02:11:58.921Z,14.61
2022-10-14T02:14:38.687Z,14.57
2022-10-14T02:17:13.554Z,14.66
2022-10-14T02:19:47.825Z,14.53
2022-10-14T02:22:26.297Z,14.58
2022-10-14T02:24:59.913Z,14.39
2022-10-14T02:27:30.375Z,14.49
2022-10-14T02:30:01.186Z,14.50
2022-10-14T02:32:32.445Z,14.33
2022-10-14T02:35:03.082Z,14.43
2022-10-14T02:37:32.395Z,14.46
2022-10-14T02:40:07.165Z,14.49
2022-10-14T02:42:43.844Z,14.49
2022-10-14T02:45:14.029Z,14.52
2022-10-14T02:47:44.021Z,14.40
2022-10-14T02:50:12.954Z,14.41
2022-10-14T02:52:40.862Z,14.54
2022-10-14T02:55:09.583Z,14.46
2022-10-14T02:57:39.098Z,14.53
2022-10-14T03:00:08.226Z,14.46
2022-10-14T03:02:36.771Z,14.45
2022-10-14T03:05:07.340Z,14.43
2022-10-14T03:07:35.294Z,14.47
2022-10-14T03:10:07.799Z,14.39
2022-10-14T03:12:37.491Z,14.53
2022-10-14T03:15:11.047Z,14.58
2022-10-14T03:17:39.158Z,14.57
2022-10-14T03:20:10.620Z,14.53
2022-10-14T03:22:47.520Z,14.54
2022-10-14T03:25:17.195Z,14.54
2022-10-14T03:27:54.628Z,14.51
2022-10-14T03:30:32.853Z,14.44
2022-10-14T03:33:07.216Z,14.57
2022-10-14T03:36:06.083Z,14.63
2022-10-14T03:38:47.647Z,14.56
2022-10-14T03:41:26.074Z,14.66
2022-10-14T03:43:54.267Z,14.67
2022-10-14T03:46:22.611Z,14.63
2022-10-14T03:48:52.140Z,14.60
2022-10-14T03:51:22.133Z,14.64
2022-10-14T03:53:50.549Z,14.65
2022-10-14T03:56:26.573Z,14.66
2022-10-14T03:58:55.594Z,14.50
2022-10-14T04:01:25.201Z,14.45
2022-10-14T04:04:09.976Z,14.41
2022-10-14T04:06:41.956Z,14.42
2022-10-14T04:09:11.042Z,14.48
2022-10-14T04:11:41.892Z,14.38
2022-10-14T04:14:16.304Z,14.32
2022-10-14T04:16:50.139Z,14.31
2022-10-14T04:19:19.211Z,14.34
2022-10-14T04:21:48.936Z,14.43
2022-10-14T04:24:21.852Z,14.35
2022-10-14T04:26:56.309Z,14.43
2022-10-14T04:29:40.205Z,14.43
2022-10-14T04:32:15.127Z,14.36
2022-10-14T04:34:44.124Z,14.25
2022-10-14T04:37:17.534Z,14.20
2022-10-14T04:40:09.669Z,14.10
2022-10-14T04:42:43.729Z,14.04
2022-10-14T04:45:20.906Z,13.94
2022-10-14T04:47:55.139Z,13.89
2022-10-14T04:50:25.491Z,13.87
2022-10-14T04:53:19.654Z,13.80
2022-10-14T04:56:01.841Z,13.75
2022-10-14T04:58:29.891Z,13.73
2022-10-14T05:00:58.613Z,13.71
2022-10-14T05:03:31.410Z,13.68
2022-10-14T05:06:00.785Z,13.64
2022-10-14T05:08:30.326Z,13.61
2022-10-14T05:11:00.504Z,13.67
2022-10-14T05:13:37.729Z,13.70
2022-10-14T05:16:09.941Z,13.69
2022-10-14T05:18:39.382Z,13.66
2022-10-14T05:21:10.834Z,13.65
2022-10-14T05:24:07.827Z,13.72
2022-10-14T05:26:38.536Z,13.55
2022-10-14T05:29:11.599Z,13.50
2022-10-14T05:31:40.813Z,13.45
2022-10-14T05:34:25.012Z,13.45
2022-10-14T05:36:53.184Z,13.47
2022-10-14T05:39:24.483Z,13.53
2022-10-14T05:41:52.659Z,13.59
2022-10-14T05:44:25.549Z,13.66
2022-10-14T05:46:55.118Z,13.71
2022-10-14T05:49:26.061Z,13.78
2022-10-14T05:51:56.887Z,13.75
2022-10-14T05:54:26.841Z,13.72
2022-10-14T05:56:58.137Z,13.62
2022-10-14T05:59:27.343Z,13.62
2022-10-14T06:01:55.347Z,13.69
2022-10-14T06:04:23.657Z,13.76
2022-10-14T06:06:51.760Z,13.78
2022-10-14T06:09:20.300Z,13.85
2022-10-14T06:11:49.768Z,13.92
2022-10-14T06:14:18.228Z,13.97
2022-10-14T06:16:51.001Z,14.03
2022-10-14T06:19:19.205Z,14.09
2022-10-14T06:21:47.446Z,14.03
2022-10-14T06:24:17.563Z,14.11
2022-10-14T06:26:45.507Z,14.14
2022-10-14T06:29:15.086Z,14.18
2022-10-14T06:31:43.836Z,14.25
2022-10-14T06:34:12.067Z,14.32
2022-10-14T06:36:40.163Z,14.32
2022-10-14T06:39:08.131Z,14.34
2022-10-14T06:41:36.087Z,14.38
2022-10-14T06:44:05.143Z,14.44
2022-10-14T06:46:34.431Z,14.47
2022-10-14T06:49:02.512Z,14.44
2022-10-14T06:51:30.608Z,14.50
2022-10-14T06:53:58.591Z,14.35
2022-10-14T06:56:26.511Z,14.51
2022-10-14T06:58:55.635Z,14.57
2022-10-14T07:01:24.415Z,14.60
2022-10-14T07:03:56.569Z,14.69
2022-10-14T07:06:25.241Z,14.73
2022-10-14T07:08:54.080Z,14.64
2022-10-14T07:11:23.295Z,14.74
2022-10-14T07:13:51.415Z,14.81
2022-10-14T07:16:19.373Z,14.84
2022-10-14T07:18:47.513Z,14.86
2022-10-14T07:21:17.077Z,14.91
2022-10-14T07:23:45.087Z,14.98
2022-10-14T07:26:12.985Z,15.02
2022-10-14T07:28:42.458Z,15.01
2022-10-14T07:31:13.123Z,14.97
2022-10-14T07:33:42.116Z,14.85
2022-10-14T07:36:13.574Z,14.65
2022-10-14T07:38:45.054Z,14.69
2022-10-14T07:41:18.558Z,14.80
2022-10-14T07:43:48.257Z,14.84
2022-10-14T07:46:28.388Z,15.05
2022-10-14T07:48:57.759Z,15.29
2022-10-14T07:51:27.331Z,15.46
2022-10-14T07:53:59.327Z,15.59
2022-10-14T07:56:27.846Z,15.64
2022-10-14T07:58:56.251Z,15.63
2022-10-14T08:01:24.731Z,15.76
2022-10-14T08:03:53.625Z,15.76
2022-10-14T08:06:22.179Z,15.85
2022-10-14T08:08:50.258Z,15.75
2022-10-14T08:11:23.347Z,15.79
2022-10-14T08:13:51.947Z,15.73
2022-10-14T08:16:23.097Z,15.58
2022-10-14T08:18:51.764Z,15.60
2022-10-14T08:21:21.541Z,15.84
2022-10-14T08:23:49.963Z,16.08
2022-10-14T08:26:24.737Z,16.01
2022-10-14T08:28:53.564Z,15.67
2022-10-14T08:31:22.271Z,15.74
2022-10-14T08:33:50.744Z,15.61
2022-10-14T08:36:19.728Z,15.53
2022-10-14T08:38:48.132Z,15.51
2022-10-14T08:41:32.886Z,15.41
2022-10-14T08:44:13.637Z,15.61
2022-10-14T08:46:49.512Z,15.91
2022-10-14T08:49:27.102Z,16.18
2022-10-14T08:52:00.000Z,16.44
2022-10-14T08:54:36.807Z,16.79
2022-10-14T08:57:16.005Z,16.97
2022-10-14T08:59:44.200Z,16.97
2022-10-14T09:02:22.641Z,17.02
2022-10-14T09:04:50.858Z,17.11
2022-10-14T09:07:21.031Z,17.19
2022-10-14T09:09:52.738Z,17.14
2022-10-14T09:12:27.454Z,17.17
2022-10-14T09:15:04.719Z,17.13
2022-10-14T09:17:38.133Z,17.40
2022-10-14T09:20:17.889Z,17.61
2022-10-14T09:22:47.305Z,17.85
2022-10-14T09:25:16.904Z,18.01
2022-10-14T09:30:20.663Z,17.87
2022-10-14T09:32:51.187Z,17.67
2022-10-14T09:35:25.466Z,17.60
2022-10-14T09:37:54.372Z,17.63
2022-10-14T09:40:30.099Z,17.72
2022-10-14T09:43:06.676Z,17.84
2022-10-14T09:45:57.895Z,17.83
2022-10-14T09:48:33.582Z,17.60
2022-10-14T09:51:04.127Z,17.60
2022-10-14T09:53:34.775Z,17.51
2022-10-14T09:56:04.897Z,17.21
2022-10-14T09:58:39.689Z,17.66
2022-10-14T10:01:12.964Z,17.74
2022-10-14T10:03:41.289Z,17.95
2022-10-14T10:06:12.398Z,17.95
2022-10-14T10:08:56.224Z,17.85
2022-10-14T10:11:34.443Z,17.84
2022-10-14T10:14:17.688Z,17.85
2022-10-14T10:16:46.978Z,18.04
2022-10-14T10:19:27.989Z,17.97
2022-10-14T10:21:57.383Z,18.27
2022-10-14T10:24:28.757Z,18.66
2022-10-14T10:26:58.895Z,18.86
2022-10-14T10:29:32.321Z,18.53
2022-10-14T10:32:12.154Z,18.26
2022-10-14T10:35:00.996Z,18.02
2022-10-14T10:37:32.074Z,18.23
2022-10-14T10:40:18.499Z,18.43
2022-10-14T10:42:59.643Z,18.70
2022-10-14T10:45:43.438Z,18.50
2022-10-14T10:48:21.193Z,18.54
2022-10-14T10:50:57.815Z,18.43
2022-10-14T10:53:45.778Z,18.37
2022-10-14T10:56:25.940Z,18.19
2022-10-14T10:59:26.586Z,18.23
2022-10-14T11:02:14.203Z,18.74
2022-10-14T11:04:48.394Z,18.88
2022-10-14T11:07:40.606Z,18.95
2022-10-14T11:10:38.428Z,18.85
2022-10-14T11:13:16.276Z,18.80
2022-10-14T11:15:51.874Z,18.98
2022-10-14T11:18:32.123Z,18.74
2022-10-14T11:21:12.247Z,18.98
2022-10-14T11:24:04.044Z,18.93
2022-10-14T11:26:48.370Z,18.99
2022-10-14T11:29:41.118Z,19.01
2022-10-14T11:32:18.644Z,19.47
2022-10-14T11:35:00.989Z,19.82
2022-10-14T11:38:11.080Z,19.69
2022-10-14T11:40:44.959Z,19.80
2022-10-14T11:43:27.032Z,19.62
2022-10-14T11:45:58.677Z,19.83
2022-10-14T11:48:36.752Z,19.95
2022-10-14T11:51:13.533Z,20.00
2022-10-14T11:53:59.110Z,19.91
2022-10-14T11:56:38.696Z,19.84
2022-10-14T12:00:18.151Z,20.03
2022-10-14T12:02:54.338Z,20.06
2022-10-14T12:05:27.056Z,19.79
2022-10-14T12:08:08.835Z,19.73
2022-10-14T12:10:41.719Z,19.82
2022-10-14T12:13:14.847Z,19.40
2022-10-14T12:15:48.203Z,19.50
2022-10-14T12:18:19.393Z,19.21
2022-10-14T12:20:56.391Z,19.08
2022-10-14T12:23:32.346Z,19.08
2022-10-14T12:26:06.809Z,19.00
2022-10-14T12:28:38.693Z,18.98
2022-10-14T12:31:38.754Z,18.97
2022-10-14T12:34:19.077Z,19.01
2022-10-14T12:36:50.701Z,19.08
2022-10-14T12:39:43.049Z,19.09
2022-10-14T12:42:16.659Z,18.96
2022-10-14T12:44:48.917Z,19.02
2022-10-14T12:47:21.092Z,18.99
2022-10-14T12:49:51.869Z,19.04
2022-10-14T12:52:25.332Z,19.06
2022-10-14T12:54:56.038Z,19.10
2022-10-14T12:57:29.780Z,19.13
2022-10-14T13:00:01.656Z,19.04
2022-10-14T13:02:33.619Z,19.12
2022-10-14T13:05:05.034Z,19.16
2022-10-14T13:07:42.876Z,19.04
2022-10-14T13:10:47.217Z,19.09
2022-10-14T13:13:53.520Z,19.18
2022-10-14T13:17:01.951Z,19.30
2022-10-14T13:19:47.180Z,19.31
2022-10-14T13:22:41.467Z,18.88
2022-10-14T13:25:19.785Z,19.07
2022-10-14T13:28:04.897Z,19.09
2022-10-14T13:30:38.513Z,19.16
2022-10-14T13:33:17.350Z,18.99
2022-10-14T13:35:54.616Z,19.06
2022-10-14T13:38:24.874Z,19.11
2022-10-14T13:40:55.366Z,19.06
2022-10-14T13:43:29.830Z,19.06
2022-10-14T13:46:07.075Z,18.91
2022-10-14T13:48:38.531Z,18.84
2022-10-14T13:51:35.935Z,18.79
2022-10-14T13:54:18.825Z,18.85
2022-10-14T14:02:48.988Z,18.84
2022-10-14T14:05:27.034Z,18.90
2022-10-14T14:11:15.126Z,18.90
2022-10-14T14:13:54.495Z,18.94
2022-10-14T14:16:29.902Z,18.97
2022-10-14T14:19:14.158Z,18.90
2022-10-14T14:21:43.363Z,18.79
2022-10-14T14:24:42.445Z,18.74
2022-10-14T14:27:13.325Z,18.68
2022-10-14T14:29:44.803Z,18.60
2022-10-14T14:32:19.690Z,18.61
2022-10-14T14:34:50.134Z,18.73
2022-10-14T14:37:48.241Z,18.75
2022-10-14T14:40:25.279Z,18.67
2022-10-14T14:42:59.272Z,18.59
2022-10-14T14:45:30.511Z,18.55
2022-10-14T14:48:03.998Z,18.56
2022-10-14T14:50:34.858Z,18.58
2022-10-14T14:53:05.242Z,18.52
2022-10-14T14:55:40.163Z,18.47
2022-10-14T14:58:43.209Z,18.39
2022-10-14T15:01:20.762Z,18.40
2022-10-14T15:04:13.011Z,18.38
2022-10-14T15:06:51.411Z,18.29
2022-10-14T15:09:24.174Z,18.28
2022-10-14T15:11:54.776Z,18.32
2022-10-14T15:14:37.827Z,18.25
2022-10-14T15:17:06.762Z,18.25
2022-10-14T15:19:38.861Z,17.95
2022-10-14T15:22:29.899Z,18.05
2022-10-14T15:25:05.736Z,17.99
2022-10-14T15:27:50.768Z,17.74
2022-10-14T15:30:31.435Z,17.94
2022-10-14T15:33:04.022Z,18.02
2022-10-14T15:35:36.075Z,18.04
2022-10-14T15:38:06.546Z,17.97
2022-10-14T15:40:34.847Z,18.01
2022-10-14T15:43:03.418Z,17.94
2022-10-14T15:45:32.092Z,17.87
2022-10-14T15:48:05.562Z,17.86
2022-10-14T15:50:40.996Z,17.75
2022-10-14T15:53:10.660Z,17.71
2022-10-14T15:55:38.770Z,17.71
2022-10-14T15:58:08.170Z,17.65
2022-10-14T16:00:39.613Z,17.65
2022-10-14T16:03:07.928Z,17.63
2022-10-14T16:05:43.502Z,17.62
2022-10-14T16:08:16.346Z,17.59
2022-10-14T16:10:47.562Z,17.57
2022-10-14T16:13:15.960Z,17.54
2022-10-14T16:15:49.938Z,17.49
2022-10-14T16:18:21.582Z,17.47
2022-10-14T16:20:53.953Z,17.49
2022-10-14T16:23:28.295Z,17.47
2022-10-14T16:26:00.224Z,17.40
2022-10-14T16:28:28.354Z,17.32
2022-10-14T16:30:56.314Z,17.30
2022-10-14T16:33:24.430Z,17.32
2022-10-14T16:35:55.456Z,17.31
2022-10-14T16:38:24.441Z,17.28
2022-10-14T16:40:59.687Z,17.26
2022-10-14T16:43:30.107Z,17.26
2022-10-14T16:45:59.711Z,17.17
2022-10-14T16:48:29.348Z,17.18
2022-10-14T16:51:07.204Z,17.26
2022-10-14T16:53:44.900Z,17.24
2022-10-14T16:56:29.296Z,17.20
2022-10-14T16:59:11.707Z,17.19
2022-10-14T17:01:40.363Z,17.12
2022-10-14T17:04:13.927Z,17.12
2022-10-14T17:06:45.405Z,17.04
2022-10-14T17:09:16.100Z,17.09
2022-10-14T17:11:45.157Z,17.10
2022-10-14T17:14:15.416Z,17.10
2022-10-14T17:16:46.160Z,17.10
2022-10-14T17:19:14.857Z,17.06
2022-10-14T17:21:45.008Z,17.01
2022-10-14T17:24:17.081Z,17.03
2022-10-14T17:26:49.505Z,16.98
2022-10-14T17:29:17.409Z,16.95
2022-10-14T17:31:46.779Z,16.93
2022-10-14T17:34:14.962Z,16.88
2022-10-14T17:36:44.222Z,16.88
2022-10-14T17:39:18.942Z,16.81
2022-10-14T17:41:52.594Z,16.81
2022-10-14T17:44:20.888Z,16.77
2022-10-14T17:46:52.838Z,16.78
2022-10-14T17:49:21.304Z,16.75
2022-10-14T17:51:52.283Z,16.44
2022-10-14T17:54:21.517Z,16.20
2022-10-14T17:56:51.129Z,16.54
2022-10-14T17:59:19.137Z,16.59
2022-10-14T18:02:02.054Z,16.42
2022-10-14T18:04:32.764Z,16.52
2022-10-14T18:07:02.658Z,16.50
2022-10-14T18:09:34.006Z,16.38
2022-10-14T18:12:10.103Z,16.47
2022-10-14T18:14:38.914Z,16.33
2022-10-14T18:17:07.236Z,16.46
2022-10-14T18:19:35.260Z,16.46
2022-10-14T18:22:07.412Z,16.38
2022-10-14T18:24:38.501Z,16.37
2022-10-14T18:27:07.207Z,16.40
2022-10-14T18:29:35.793Z,16.40
2022-10-14T18:32:06.951Z,16.31
2022-10-14T18:34:35.123Z,16.32
2022-10-14T18:37:04.698Z,16.30
2022-10-14T18:39:32.701Z,16.27
2022-10-14T18:42:00.874Z,16.29
2022-10-14T18:44:28.990Z,16.33
2022-10-14T18:46:57.004Z,16.34
2022-10-14T18:49:25.089Z,16.34
2022-10-14T18:51:55.096Z,16.32
2022-10-14T18:54:25.198Z,16.40
2022-10-14T18:56:54.892Z,16.40
2022-10-14T18:59:24.732Z,16.42
2022-10-14T19:01:54.496Z,16.53
2022-10-14T19:04:24.354Z,16.40
2022-10-14T19:06:52.695Z,16.42
2022-10-14T19:12:22.319Z,16.53
2022-10-14T19:14:50.847Z,16.46
2022-10-14T19:17:18.842Z,16.44
2022-10-14T19:19:47.127Z,16.48
2022-10-14T19:22:15.758Z,16.49
2022-10-14T19:24:44.850Z,16.39
2022-10-14T19:27:14.559Z,16.36
2022-10-14T19:29:42.767Z,16.36
2022-10-14T19:32:10.714Z,16.32
2022-10-14T19:34:39.530Z,16.35
2022-10-14T19:37:08.810Z,16.39
2022-10-14T19:39:37.003Z,16.47
2022-10-14T19:42:05.703Z,16.38
2022-10-14T19:44:35.154Z,16.44
2022-10-14T19:47:03.494Z,16.47
2022-10-14T19:49:32.051Z,16.47
2022-10-14T19:52:07.017Z,16.53
2022-10-14T19:54:35.237Z,16.40
2022-10-14T19:57:04.810Z,16.38
2022-10-14T19:59:34.185Z,16.37
2022-10-14T20:02:02.108Z,16.38
2022-10-14T20:04:30.167Z,16.34
2022-10-14T20:06:58.071Z,16.35
2022-10-14T20:09:31.364Z,16.35
2022-10-14T20:11:59.369Z,16.34
2022-10-14T20:14:31.974Z,16.27
2022-10-14T20:17:04.058Z,16.29
2022-10-14T20:19:37.543Z,16.26
2022-10-14T20:22:05.859Z,16.37
2022-10-14T20:24:34.046Z,16.42
2022-10-14T20:27:03.069Z,16.44
2022-10-14T20:29:36.018Z,16.40
2022-10-14T20:32:58.801Z,16.27
2022-10-14T20:37:57.020Z,16.23
2022-10-14T20:40:24.997Z,16.31
2022-10-14T20:42:53.409Z,16.21
2022-10-14T20:45:21.304Z,16.26
2022-10-14T20:47:53.394Z,16.33
2022-10-14T20:50:22.437Z,16.23
2022-10-14T20:52:51.799Z,16.17
2022-10-14T20:55:21.346Z,16.21
2022-10-14T20:57:49.253Z,16.09
2022-10-14T21:00:17.664Z,15.99
2022-10-14T21:02:45.745Z,16.00
2022-10-14T21:05:13.714Z,16.05
2022-10-14T21:07:41.895Z,16.07
2022-10-14T21:10:11.723Z,16.11
2022-10-14T21:12:43.051Z,16.11
2022-10-14T21:15:12.727Z,16.08
2022-10-14T21:17:40.779Z,16.06
2022-10-14T21:20:10.079Z,16.06
2022-10-14T21:22:37.988Z,16.12
2022-10-14T21:25:07.051Z,16.17
2022-10-14T21:27:36.399Z,16.24
2022-10-14T21:30:30.801Z,16.27
2022-10-14T21:33:05.787Z,16.23
2022-10-14T21:35:36.910Z,16.24
2022-10-14T21:38:06.706Z,16.17
2022-10-14T21:40:34.860Z,16.11
2022-10-14T21:43:04.420Z,16.10
2022-10-14T21:45:32.742Z,16.08
2022-10-14T21:48:00.794Z,16.06
2022-10-14T21:50:29.221Z,16.11
2022-10-14T21:52:58.343Z,16.22
2022-10-14T21:55:26.514Z,16.23
2022-10-14T21:57:54.522Z,16.15
2022-10-14T22:00:23.933Z,16.06
2022-10-14T22:02:53.219Z,16.02
2022-10-14T22:05:21.702Z,16.01
2022-10-14T22:07:50.661Z,16.03
2022-10-14T22:10:36.669Z,16.01
2022-10-14T22:13:08.071Z,15.98
2022-10-14T22:15:42.460Z,15.92
2022-10-14T22:18:11.123Z,15.86
2022-10-14T22:20:39.422Z,15.86
2022-10-14T22:23:07.456Z,15.87
2022-10-14T22:25:35.878Z,15.88
2022-10-14T22:28:04.749Z,15.98
2022-10-14T22:30:35.869Z,15.96
2022-10-14T22:33:14.081Z,15.99
2022-10-14T22:35:42.147Z,16.00
2022-10-14T22:38:10.317Z,15.96
2022-10-14T22:40:38.337Z,16.01
2022-10-14T22:43:06.405Z,16.06
2022-10-14T22:45:37.910Z,16.10
2022-10-14T22:48:08.240Z,16.12
2022-10-14T22:50:36.616Z,16.11
2022-10-14T22:53:04.626Z,16.02
2022-10-14T22:55:32.665Z,15.99
2022-10-14T22:58:00.623Z,15.95
2022-10-14T23:00:28.739Z,15.99
2022-10-14T23:02:56.801Z,16.03
2022-10-14T23:05:26.230Z,16.06
2022-10-14T23:07:54.162Z,16.01
2022-10-14T23:10:22.173Z,15.92
2022-10-14T23:12:50.341Z,15.94
2022-10-14T23:15:18.350Z,15.91
2022-10-14T23:17:46.552Z,15.91
2022-10-14T23:20:14.879Z,15.94
2022-10-14T23:22:44.322Z,15.95
2022-10-14T23:25:12.711Z,15.91
2022-10-14T23:27:40.995Z,15.95
2022-10-14T23:30:09.954Z,15.97
2022-10-14T23:32:38.139Z,16.02
2022-10-14T23:35:07.208Z,16.01
2022-10-14T23:37:35.199Z,15.99
2022-10-14T23:40:04.954Z,15.95
2022-10-14T23:42:32.892Z,15.95
2022-10-14T23:45:00.849Z,15.96
2022-10-14T23:47:28.828Z,15.96
2022-10-14T23:49:56.880Z,15.96
2022-10-14T23:52:25.309Z,15.98
2022-10-14T23:54:53.541Z,15.98
2022-10-14T23:57:23.222Z,16.01
2022-10-14T23:59:51.470Z,16.00
